createdAt,value
2018-09-30T00:00:24.217Z,4.6
2018-09-30T00:01:31.146Z,4.6
2018-09-30T00:02:38.362Z,4.6
2018-09-30T00:03:45.582Z,4.6
2018-09-30T00:04:52.791Z,4.6
2018-09-30T00:05:59.729Z,4.6
2018-09-30T00:07:06.950Z,4.6
2018-09-30T00:08:14.170Z,4.5
2018-09-30T00:09:21.379Z,4.5
2018-09-30T00:10:28.601Z,4.5
2018-09-30T00:11:35.543Z,4.5
2018-09-30T00:12:42.478Z,4.4
2018-09-30T00:13:49.434Z,4.4
2018-09-30T00:14:56.646Z,4.4
2018-09-30T00:16:03.849Z,4.4
2018-09-30T00:17:11.060Z,4.4
2018-09-30T00:18:18.261Z,4.3
2018-09-30T00:19:25.590Z,4.3
2018-09-30T00:20:32.885Z,4.4
2018-09-30T00:21:40.105Z,4.3
2018-09-30T00:22:47.310Z,4.3
2018-09-30T00:23:54.535Z,4.3
2018-09-30T00:25:01.754Z,4.4
2018-09-30T00:26:08.983Z,4.3
2018-09-30T00:27:16.195Z,4.3
2018-09-30T00:28:23.407Z,4.3
2018-09-30T00:29:30.622Z,4.3
2018-09-30T00:30:37.833Z,4.3
2018-09-30T00:31:45.040Z,4.3
2018-09-30T00:32:52.265Z,4.2
2018-09-30T00:33:59.210Z,4.2
2018-09-30T00:35:06.436Z,4.1
2018-09-30T00:36:13.713Z,4.1
2018-09-30T00:37:21.076Z,4.2
2018-09-30T00:38:28.012Z,4.2
2018-09-30T00:39:34.951Z,4.1
2018-09-30T00:40:42.172Z,4.1
2018-09-30T00:41:48.832Z,4.2
2018-09-30T00:42:56.045Z,4.1
2018-09-30T00:44:03.267Z,4
2018-09-30T00:45:10.483Z,4
2018-09-30T00:46:17.417Z,4
2018-09-30T00:47:24.356Z,3.9
2018-09-30T00:48:31.565Z,3.9
2018-09-30T00:49:38.794Z,3.9
2018-09-30T00:50:46.022Z,4
2018-09-30T00:51:53.228Z,4
2018-09-30T00:53:00.462Z,4
2018-09-30T00:54:07.672Z,4
2018-09-30T00:55:14.881Z,4
2018-09-30T00:56:22.092Z,4
2018-09-30T00:57:29.315Z,3.9
2018-09-30T00:58:36.218Z,3.9
2018-09-30T00:59:43.454Z,4
2018-09-30T01:00:50.681Z,3.9
2018-09-30T01:01:57.919Z,3.9
2018-09-30T01:03:05.132Z,3.9
2018-09-30T01:04:12.335Z,3.9
2018-09-30T01:05:19.273Z,3.9
2018-09-30T01:06:26.482Z,3.9
2018-09-30T01:07:33.687Z,3.9
2018-09-30T01:08:40.611Z,3.9
2018-09-30T01:09:47.824Z,3.9
2018-09-30T01:10:55.046Z,3.9
2018-09-30T01:12:02.259Z,3.9
2018-09-30T01:13:09.485Z,3.8
2018-09-30T01:14:16.692Z,3.8
2018-09-30T01:15:23.897Z,3.8
2018-09-30T01:16:31.118Z,3.8
2018-09-30T01:17:38.340Z,3.8
2018-09-30T01:18:45.552Z,3.7
2018-09-30T01:19:52.760Z,3.7
2018-09-30T01:20:59.977Z,3.7
2018-09-30T01:22:06.906Z,3.7
2018-09-30T01:23:14.115Z,3.7
2018-09-30T01:24:21.323Z,3.7
2018-09-30T01:25:28.538Z,3.6
2018-09-30T01:26:35.470Z,3.5
2018-09-30T01:27:42.411Z,3.5
2018-09-30T01:28:49.629Z,3.5
2018-09-30T01:29:56.843Z,3.5
2018-09-30T01:31:04.067Z,3.5
2018-09-30T01:32:11.309Z,3.6
2018-09-30T01:33:18.537Z,3.6
2018-09-30T01:34:25.747Z,3.6
2018-09-30T01:35:32.958Z,3.5
2018-09-30T01:36:40.165Z,3.5
2018-09-30T01:37:46.839Z,3.6
2018-09-30T01:38:54.057Z,3.5
2018-09-30T01:40:00.684Z,3.5
2018-09-30T01:41:07.896Z,3.5
2018-09-30T01:42:15.103Z,3.5
2018-09-30T01:43:22.322Z,3.5
2018-09-30T01:44:29.550Z,3.5
2018-09-30T01:45:36.760Z,3.4
2018-09-30T01:46:43.985Z,3.4
2018-09-30T01:47:51.189Z,3.4
2018-09-30T01:48:58.418Z,3.4
2018-09-30T01:50:05.639Z,3.4
2018-09-30T01:51:12.864Z,3.4
2018-09-30T01:52:20.098Z,3.4
2018-09-30T01:53:27.316Z,3.4
2018-09-30T01:54:34.534Z,3.4
2018-09-30T01:55:41.762Z,3.3
2018-09-30T01:56:48.988Z,3.3
2018-09-30T01:57:56.439Z,3.2
2018-09-30T01:59:03.655Z,3.2
2018-09-30T02:00:10.864Z,3.2
2018-09-30T02:01:18.071Z,3.2
2018-09-30T02:02:25.312Z,3.2
2018-09-30T02:03:32.521Z,3.2
2018-09-30T02:04:39.740Z,3.2
2018-09-30T02:05:46.691Z,3.2
2018-09-30T02:06:53.909Z,3.2
2018-09-30T02:08:01.160Z,3.2
2018-09-30T02:09:08.597Z,3.2
2018-09-30T02:10:15.814Z,3.2
2018-09-30T02:11:23.234Z,3.2
2018-09-30T02:12:30.452Z,3.2
2018-09-30T02:13:37.888Z,3.3
2018-09-30T02:14:45.115Z,3.2
2018-09-30T02:15:52.357Z,3.2
2018-09-30T02:16:59.611Z,3.3
2018-09-30T02:18:06.826Z,3.3
2018-09-30T02:19:14.040Z,3.4
2018-09-30T02:20:21.259Z,3.3
2018-09-30T02:21:28.472Z,3.3
2018-09-30T02:22:35.712Z,3.3
2018-09-30T02:23:42.932Z,3.3
2018-09-30T02:24:50.160Z,3.3
2018-09-30T02:25:57.377Z,3.3
2018-09-30T02:27:04.814Z,3.3
2018-09-30T02:28:12.031Z,3.3
2018-09-30T02:29:19.483Z,3.3
2018-09-30T02:30:26.704Z,3.3
2018-09-30T02:31:34.318Z,3.3
2018-09-30T02:32:41.528Z,3.3
2018-09-30T02:33:48.770Z,3.2
2018-09-30T02:34:55.727Z,3.2
2018-09-30T02:36:02.939Z,3.2
2018-09-30T02:37:10.159Z,3.2
2018-09-30T02:38:17.382Z,3.1
2018-09-30T02:39:24.638Z,3.2
2018-09-30T02:40:31.591Z,3.2
2018-09-30T02:41:38.806Z,3.2
2018-09-30T02:42:45.746Z,3.2
2018-09-30T02:43:52.967Z,3.2
2018-09-30T02:44:59.898Z,3.1
2018-09-30T02:46:07.104Z,3.1
2018-09-30T02:47:14.358Z,3.1
2018-09-30T02:48:21.566Z,3.2
2018-09-30T02:49:28.761Z,3.2
2018-09-30T02:50:35.976Z,3.2
2018-09-30T02:51:43.181Z,3.2
2018-09-30T02:52:50.387Z,3.2
2018-09-30T02:53:57.837Z,3.1
2018-09-30T02:55:05.050Z,3.1
2018-09-30T02:56:12.263Z,3.1
2018-09-30T02:57:19.474Z,3.1
2018-09-30T02:58:26.686Z,3.1
2018-09-30T02:59:33.897Z,3.1
2018-09-30T03:00:41.109Z,3.1
2018-09-30T03:01:48.321Z,3.1
2018-09-30T03:02:55.528Z,3.1
2018-09-30T03:04:02.744Z,3
2018-09-30T03:05:09.991Z,3
2018-09-30T03:06:17.214Z,3
2018-09-30T03:07:24.425Z,3
2018-09-30T03:08:31.414Z,3
2018-09-30T03:09:38.611Z,2.9
2018-09-30T03:10:45.823Z,2.9
2018-09-30T03:11:53.058Z,2.9
2018-09-30T03:13:00.265Z,2.9
2018-09-30T03:14:07.484Z,2.9
2018-09-30T03:15:29.365Z,2.9
2018-09-30T03:16:36.581Z,2.9
2018-09-30T03:17:43.803Z,2.9
2018-09-30T03:18:51.035Z,2.9
2018-09-30T03:19:57.978Z,2.9
2018-09-30T03:21:05.145Z,2.8
2018-09-30T03:22:12.354Z,2.9
2018-09-30T03:23:19.819Z,2.9
2018-09-30T03:24:27.026Z,2.9
2018-09-30T03:25:34.195Z,2.9
2018-09-30T03:26:41.410Z,2.9
2018-09-30T03:27:48.372Z,2.9
2018-09-30T03:28:55.591Z,2.9
2018-09-30T03:30:02.559Z,2.9
2018-09-30T03:31:09.800Z,2.8
2018-09-30T03:32:17.008Z,2.8
2018-09-30T03:33:24.231Z,2.8
2018-09-30T03:34:31.439Z,2.8
2018-09-30T03:35:38.373Z,2.8
2018-09-30T03:36:45.591Z,2.8
2018-09-30T03:37:52.521Z,2.8
2018-09-30T03:38:59.745Z,2.8
2018-09-30T03:40:06.954Z,2.8
2018-09-30T03:41:14.179Z,2.8
2018-09-30T03:42:21.403Z,2.8
2018-09-30T03:43:28.614Z,2.7
2018-09-30T03:44:35.839Z,2.7
2018-09-30T03:45:43.054Z,2.7
2018-09-30T22:00:06.451Z,6.5
2018-09-30T22:01:13.751Z,6.5
2018-09-30T22:02:20.806Z,6.5
2018-09-30T22:03:28.025Z,6.5
2018-09-30T22:04:34.988Z,6.4
2018-09-30T22:05:42.425Z,6.4
2018-09-30T22:06:49.647Z,6.4
2018-09-30T22:07:57.075Z,6.4
2018-09-30T22:09:04.311Z,6.4
2018-09-30T22:10:11.546Z,6.4
2018-09-30T22:11:18.784Z,6.3
2018-09-30T22:12:26.016Z,6.3
2018-09-30T22:13:33.243Z,6.3
2018-09-30T22:14:40.705Z,6.3
2018-09-30T22:15:47.940Z,6.3
2018-09-30T22:16:55.427Z,6.3
2018-09-30T22:18:02.670Z,6.2
2018-09-30T22:19:10.060Z,6.2
2018-09-30T22:20:17.378Z,6.2
2018-09-30T22:21:24.600Z,6.2
2018-09-30T22:22:31.822Z,6.2
2018-09-30T22:23:39.058Z,6.2
2018-09-30T22:24:46.277Z,6.1
2018-09-30T22:25:53.530Z,6.1
2018-09-30T22:27:01.046Z,6.1
2018-09-30T22:28:08.179Z,6.1
2018-09-30T22:29:15.416Z,6.1
2018-09-30T22:30:22.854Z,6
2018-09-30T22:31:29.809Z,6
2018-09-30T22:32:37.253Z,6
2018-09-30T22:33:44.467Z,6
2018-09-30T22:34:51.943Z,6
2018-09-30T22:35:59.158Z,5.9
2018-09-30T22:37:06.385Z,5.9
2018-09-30T22:38:13.609Z,5.9
2018-09-30T22:39:20.572Z,5.9
2018-09-30T22:40:28.010Z,5.9
2018-09-30T22:41:35.451Z,5.8
2018-09-30T22:42:42.686Z,5.9
2018-09-30T22:43:49.916Z,5.9
2018-09-30T22:44:57.158Z,5.9
2018-09-30T22:46:04.387Z,5.8
2018-09-30T22:47:11.606Z,5.8
2018-09-30T22:48:19.061Z,5.8
2018-09-30T22:49:26.270Z,5.8
2018-09-30T22:50:33.730Z,5.8
2018-09-30T22:51:40.937Z,5.7
2018-09-30T22:52:48.206Z,5.8
2018-09-30T22:53:55.440Z,5.8
2018-09-30T22:55:02.665Z,5.7
2018-09-30T22:56:09.883Z,5.7
2018-09-30T22:57:16.862Z,5.6
2018-09-30T22:58:24.074Z,5.7
2018-09-30T22:59:31.288Z,5.6
2018-09-30T23:00:38.498Z,5.6
2018-09-30T23:01:45.709Z,5.6
2018-09-30T23:02:52.920Z,5.6
2018-09-30T23:03:59.836Z,5.6
2018-09-30T23:05:07.067Z,5.6
2018-09-30T23:06:14.299Z,5.6
2018-09-30T23:07:21.508Z,5.6
2018-09-30T23:08:28.726Z,5.6
2018-09-30T23:09:35.936Z,5.6
2018-09-30T23:10:43.146Z,5.5
2018-09-30T23:11:50.359Z,5.5
2018-09-30T23:12:57.570Z,5.5
2018-09-30T23:14:04.790Z,5.5
2018-09-30T23:15:12.012Z,5.5
2018-09-30T23:16:18.953Z,5.5
2018-09-30T23:17:26.183Z,5.4
2018-09-30T23:18:33.396Z,5.4
2018-09-30T23:19:40.622Z,5.4
2018-09-30T23:20:47.559Z,5.4
2018-09-30T23:21:54.766Z,5.4
2018-09-30T23:23:01.683Z,5.4
2018-09-30T23:24:08.896Z,5.3
2018-09-30T23:25:15.833Z,5.3
2018-09-30T23:26:23.051Z,5.3
2018-09-30T23:27:30.269Z,5.2
2018-09-30T23:28:37.476Z,5.2
2018-09-30T23:29:44.690Z,5.2
2018-09-30T23:30:51.903Z,5.2
2018-09-30T23:31:59.117Z,5.2
2018-09-30T23:33:06.344Z,5.2
2018-09-30T23:34:13.556Z,5.2
2018-09-30T23:35:20.800Z,5.3
2018-09-30T23:36:28.014Z,5.3
2018-09-30T23:37:34.945Z,5.3
2018-09-30T23:38:42.169Z,5.2
2018-09-30T23:39:49.380Z,5.3
2018-09-30T23:40:56.637Z,5.3
2018-09-30T23:42:03.853Z,5.3
2018-09-30T23:43:11.059Z,5.3
2018-09-30T23:44:18.273Z,5.4
2018-09-30T23:45:25.490Z,5.4
2018-09-30T23:46:32.719Z,5.5
2018-09-30T23:47:39.945Z,5.5
2018-09-30T23:48:47.154Z,5.6
2018-09-30T23:49:54.369Z,5.7
2018-09-30T23:51:01.306Z,5.7
2018-09-30T23:52:08.251Z,5.9
2018-09-30T23:53:15.465Z,6
2018-09-30T23:54:22.671Z,6.1
2018-09-30T23:55:29.623Z,6.1
2018-09-30T23:56:36.832Z,6.2
2018-09-30T23:57:44.086Z,6.2
2018-09-30T23:58:51.452Z,6.3
2018-09-30T23:59:58.654Z,6.4
